Time;durP1;ratioP1;P1;durP2;ratioP2;P2;SDS_P1;SDS_P2;PMS_P1;PMS_P2;Temp;Humidity;BMP_temperature;BMP_pressure;BME280_temperature;BME280_humidity;BME280_pressure;Samples;Min_cycle;Max_cycle;Signal;HPM_P1;HPM_P2
2022/11/05 00:09:42;;;;;;;5.57;3.28;;;;;;;9.96;70.43;101434.88;5042790;28;20095;-75
2022/11/05 00:17:42;;;;;;;6.10;3.80;;;;;;;9.86;69.85;101451.19;5055158;28;20291;-75
2022/11/05 00:20:09;;;;;;;6.53;3.67;;;;;;;9.83;69.70;101447.00;5068653;28;20110;-75
2022/11/05 00:25:20;;;;;;;5.80;3.70;;;;;;;9.77;69.40;101454.28;5034021;28;20040;-75
2022/11/05 00:27:54;;;;;;;6.57;3.85;;;;;;;9.74;70.03;101454.75;5034616;28;20541;-75
2022/11/05 00:30:24;;;;;;;5.95;3.78;;;;;;;9.71;69.60;101460.78;5034539;28;20457;-75
2022/11/05 00:32:50;;;;;;;6.25;3.65;;;;;;;9.65;69.60;101463.63;5042791;28;20259;-74
2022/11/05 00:35:18;;;;;;;4.25;3.83;;;;;;;9.60;69.72;101458.78;5038181;28;20017;-75
2022/11/05 00:37:44;;;;;;;8.07;3.67;;;;;;;9.63;69.61;101463.88;5033950;28;20050;-74
2022/11/05 00:40:11;;;;;;;4.18;3.40;;;;;;;9.57;69.19;101470.34;5046564;28;20376;-74
2022/11/05 00:45:22;;;;;;;5.00;3.78;;;;;;;9.53;69.47;101474.66;5050072;28;20107;-74
2022/11/05 00:50:32;;;;;;;6.00;3.70;;;;;;;9.48;68.70;101482.81;5061331;28;20574;-75
2022/11/05 00:52:59;;;;;;;7.00;3.95;;;;;;;9.43;69.12;101486.28;5033307;28;20033;-75
2022/11/05 00:55:32;;;;;;;9.95;3.83;;;;;;;9.39;69.08;101485.00;5054513;28;20025;-75
2022/11/05 00:57:58;;;;;;;5.50;4.28;;;;;;;9.32;69.49;101487.03;5054038;28;20037;-75
2022/11/05 01:00:27;;;;;;;4.53;3.55;;;;;;;9.28;69.59;101489.41;5049605;28;20122;-74
2022/11/05 01:02:52;;;;;;;5.00;3.70;;;;;;;9.27;68.82;101495.16;5044297;28;20037;-74
2022/11/05 01:05:18;;;;;;;5.97;3.80;;;;;;;9.25;69.35;101492.63;5068998;28;20039;-74
2022/11/05 01:07:43;;;;;;;7.32;3.63;;;;;;;9.21;69.05;101493.34;5053437;28;20025;-74
2022/11/05 01:10:09;;;;;;;8.25;4.07;;;;;;;9.21;69.15;101496.94;5046364;28;20040;-74
2022/11/05 01:12:34;;;;;;;7.13;3.90;;;;;;;9.20;69.06;101499.94;5036189;28;20065;-74
2022/11/05 01:14:59;;;;;;;4.72;3.70;;;;;;;9.18;69.13;101504.84;5032566;28;20029;-74
2022/11/05 01:17:25;;;;;;;4.00;3.60;;;;;;;9.14;68.62;101509.16;5032197;28;20029;-74
2022/11/05 01:19:50;;;;;;;5.80;3.85;;;;;;;9.14;68.49;101514.69;5033668;28;20032;-74
2022/11/05 01:22:15;;;;;;;5.82;4.03;;;;;;;9.16;69.21;101512.56;5032927;28;20388;-74
2022/11/05 01:24:40;;;;;;;4.95;4.18;;;;;;;9.17;69.00;101514.25;5033868;28;20029;-74
2022/11/05 01:27:06;;;;;;;7.45;3.55;;;;;;;9.15;69.73;101519.16;5032902;28;20497;-74
2022/11/05 01:29:31;;;;;;;6.68;3.97;;;;;;;9.16;69.96;101523.66;5048409;28;20034;-74
2022/11/05 01:31:56;;;;;;;7.30;4.18;;;;;;;9.12;70.26;101526.03;5037888;28;20025;-74
2022/11/05 01:34:22;;;;;;;4.45;3.63;;;;;;;9.13;70.22;101521.31;5051464;28;20044;-74
2022/11/05 01:36:47;;;;;;;5.35;3.90;;;;;;;9.17;70.26;101528.94;5053585;28;20037;-74
2022/11/05 01:39:12;;;;;;;5.30;3.88;;;;;;;9.20;70.57;101522.94;5049699;28;20649;-74
2022/11/05 01:41:38;;;;;;;4.22;3.15;;;;;;;9.20;70.07;101522.09;5032177;28;20709;-74
2022/11/05 01:44:03;;;;;;;3.53;3.10;;;;;;;9.22;70.15;101528.25;5033461;28;20479;-74
2022/11/05 01:46:35;;;;;;;4.05;3.50;;;;;;;9.18;70.35;101527.84;5033545;28;20029;-73
2022/11/05 01:49:15;;;;;;;7.23;3.43;;;;;;;9.19;70.27;101535.09;5048949;28;20029;-74
2022/11/05 01:51:43;;;;;;;4.38;3.40;;;;;;;9.19;69.77;101535.09;5037641;28;20037;-74
2022/11/05 01:54:13;;;;;;;7.15;3.47;;;;;;;9.16;69.71;101534.72;5033155;28;20141;-74
2022/11/05 01:56:50;;;;;;;5.93;3.60;;;;;;;9.15;70.09;101527.47;5032179;28;20033;-74
2022/11/05 01:59:24;;;;;;;6.45;3.33;;;;;;;9.13;69.68;101532.41;5033503;28;20029;-73
2022/11/05 02:01:49;;;;;;;6.85;2.85;;;;;;;9.07;69.51;101523.91;5052861;28;20032;-74
2022/11/05 02:04:24;;;;;;;3.95;2.88;;;;;;;9.08;69.20;101522.84;5065666;28;20033;-74
2022/11/05 02:06:50;;;;;;;3.97;3.28;;;;;;;9.06;69.18;101519.44;5057967;28;20445;-74
2022/11/05 02:09:21;;;;;;;4.90;3.15;;;;;;;9.05;69.45;101512.22;5041682;28;20064;-74
2022/11/05 02:11:47;;;;;;;6.93;3.80;;;;;;;9.01;69.42;101515.69;5031918;28;20037;-74
2022/11/05 02:14:12;;;;;;;6.25;3.85;;;;;;;8.97;69.29;101515.28;5032360;28;20037;-74
2022/11/05 02:16:45;;;;;;;7.57;3.70;;;;;;;8.99;69.50;101512.28;5039408;28;20052;-74
2022/11/05 02:19:32;;;;;;;6.20;3.67;;;;;;;9.01;70.26;101512.91;5062933;28;20031;-74
2022/11/05 02:22:35;;;;;;;6.50;4.10;;;;;;;9.03;70.11;101511.59;5057376;28;20130;-74
2022/11/05 02:25:06;;;;;;;8.43;4.07;;;;;;;8.97;69.65;101518.03;5035864;28;20129;-73
2022/11/05 02:28:03;;;;;;;7.00;4.55;;;;;;;8.93;69.98;101516.81;5031102;28;20032;-74
2022/11/05 02:30:45;;;;;;;7.82;4.45;;;;;;;8.99;69.83;101523.34;5012654;28;20053;-74
2022/11/05 02:33:29;;;;;;;9.05;4.15;;;;;;;8.94;69.93;101515.72;5032188;28;20042;-73
2022/11/05 02:36:01;;;;;;;7.05;4.93;;;;;;;8.91;69.88;101516.16;5051953;28;20043;-74
2022/11/05 02:38:38;;;;;;;6.03;4.57;;;;;;;8.94;70.19;101517.66;5051776;28;20108;-74
2022/11/05 02:41:24;;;;;;;9.85;4.40;;;;;;;8.89;69.82;101507.25;5048479;28;20087;-73
2022/11/05 02:44:16;;;;;;;8.50;4.25;;;;;;;8.85;70.07;101515.16;5045883;28;20029;-74
2022/11/05 02:46:55;;;;;;;10.13;4.85;;;;;;;8.85;70.31;101514.31;5047529;28;20040;-74
2022/11/05 02:49:27;;;;;;;7.60;4.47;;;;;;;8.82;69.94;101507.31;5055342;28;20025;-74
2022/11/05 02:52:04;;;;;;;7.35;4.97;;;;;;;8.81;70.00;101508.38;5052954;28;20537;-74
2022/11/05 02:55:17;;;;;;;8.75;4.43;;;;;;;8.88;69.43;101516.63;5064334;28;20029;-74
2022/11/05 02:57:45;;;;;;;7.40;4.78;;;;;;;8.80;69.64;101505.81;5031835;28;20057;-73
2022/11/05 03:00:35;;;;;;;6.65;4.68;;;;;;;8.81;69.71;101504.78;5045246;28;20500;-74
2022/11/05 03:03:03;;;;;;;6.25;4.85;;;;;;;8.71;70.01;101505.25;5052120;28;20049;-74
2022/11/05 03:05:47;;;;;;;9.50;5.47;;;;;;;8.72;69.74;101503.34;5048769;28;20032;-73
2022/11/05 03:08:39;;;;;;;8.73;5.22;;;;;;;8.71;69.71;101508.03;5031424;28;20033;-74
2022/11/05 03:11:53;;;;;;;11.02;5.55;;;;;;;8.80;69.83;101503.94;5051460;28;20043;-75
2022/11/05 03:14:34;;;;;;;8.48;5.30;;;;;;;8.74;70.26;101503.97;5050275;28;20037;-74
2022/11/05 03:17:17;;;;;;;9.02;6.20;;;;;;;8.68;70.63;101504.84;5051618;28;20082;-75
2022/11/05 03:19:49;;;;;;;10.02;5.47;;;;;;;8.66;70.04;101507.03;5035564;28;20046;-74
2022/11/05 03:22:22;;;;;;;8.00;6.18;;;;;;;8.67;70.44;101504.00;5063884;28;20035;-74
2022/11/05 03:24:53;;;;;;;9.88;6.75;;;;;;;8.64;70.59;101506.38;5042427;28;20435;-74
2022/11/05 03:27:25;;;;;;;8.60;6.07;;;;;;;8.63;70.03;101513.84;5031003;28;20132;-75
2022/11/05 03:29:56;;;;;;;10.30;6.10;;;;;;;8.60;69.74;101512.34;5031185;28;20029;-74
2022/11/05 03:32:24;;;;;;;10.33;6.50;;;;;;;8.62;70.09;101517.69;5031597;28;20049;-75
2022/11/05 03:34:57;;;;;;;9.30;6.55;;;;;;;8.57;70.01;101520.28;5039363;28;20627;-74
2022/11/05 03:37:26;;;;;;;10.70;6.78;;;;;;;8.60;70.55;101526.19;5055323;28;20080;-74
2022/11/05 03:39:57;;;;;;;11.77;6.60;;;;;;;8.56;70.28;101524.09;5057050;28;20487;-74
2022/11/05 03:42:28;;;;;;;9.95;7.13;;;;;;;8.56;70.10;101519.41;5049987;28;20029;-74
2022/11/05 03:44:57;;;;;;;9.25;6.30;;;;;;;8.56;69.77;101519.41;5030728;28;20044;-75
2022/11/05 03:47:29;;;;;;;10.45;7.32;;;;;;;8.53;69.85;101514.34;5031139;28;20026;-74
2022/11/05 03:50:11;;;;;;;10.43;6.90;;;;;;;8.52;70.47;101518.16;5029964;28;20029;-75
2022/11/05 03:52:43;;;;;;;13.88;7.65;;;;;;;8.53;70.13;101521.81;5067481;28;20074;-74
2022/11/05 03:55:09;;;;;;;9.48;7.15;;;;;;;8.53;70.10;101522.66;5070418;28;20039;-74
2022/11/05 03:57:40;;;;;;;9.75;7.18;;;;;;;8.51;70.30;101523.94;5041412;28;20078;-75
2022/11/05 04:00:07;;;;;;;12.20;7.28;;;;;;;8.52;70.26;101517.31;5033419;28;20029;-74
2022/11/05 04:02:33;;;;;;;12.52;7.53;;;;;;;8.47;70.51;101526.28;5035447;28;20088;-74
2022/11/05 04:04:58;;;;;;;9.55;7.93;;;;;;;8.52;69.43;101520.09;5030143;28;20480;-74
2022/11/05 04:18:25;;;;;;;15.25;8.00;;;;;;;8.46;69.98;101532.06;5030258;28;20068;-74
2022/11/05 04:26:22;;;;;;;12.40;8.13;;;;;;;8.36;69.29;101540.78;5036661;28;20047;-75
2022/11/05 04:31:34;;;;;;;11.45;7.30;;;;;;;8.36;69.65;101541.66;5042281;28;20064;-76
2022/11/05 04:33:59;;;;;;;10.25;7.68;;;;;;;8.41;69.74;101540.16;5030800;28;20057;-73
2022/11/05 04:36:25;;;;;;;12.38;7.85;;;;;;;8.39;69.88;101539.56;5058356;28;20142;-74
2022/11/05 04:38:50;;;;;;;12.15;8.20;;;;;;;8.42;70.01;101542.72;5048401;28;20036;-73
2022/11/05 04:41:16;;;;;;;12.45;8.20;;;;;;;8.33;70.00;101542.13;5061811;28;20115;-73
2022/11/05 04:43:42;;;;;;;10.15;8.15;;;;;;;8.35;69.90;101539.13;5030956;28;20124;-74
2022/11/05 04:46:07;;;;;;;10.73;7.85;;;;;;;8.33;70.06;101542.13;5028915;28;20038;-73
2022/11/05 04:48:33;;;;;;;11.00;7.75;;;;;;;8.35;70.35;101545.47;5038030;28;20049;-73
2022/11/05 04:50:58;;;;;;;12.15;8.30;;;;;;;8.34;70.33;101542.94;5040247;28;20477;-74
2022/11/05 04:53:24;;;;;;;14.65;8.27;;;;;;;8.29;70.42;101551.03;5053247;28;20036;-74
2022/11/05 04:55:49;;;;;;;11.75;8.65;;;;;;;8.30;70.52;101547.22;5058651;28;20020;-75
2022/11/05 04:58:15;;;;;;;16.38;8.77;;;;;;;8.27;69.73;101567.88;5073432;28;20701;-74
2022/11/05 05:00:41;;;;;;;10.82;8.10;;;;;;;8.28;70.18;101560.41;5058721;28;20087;-75
2022/11/05 05:03:06;;;;;;;15.55;8.73;;;;;;;8.25;69.96;101564.50;5053894;28;20029;-74
2022/11/05 05:05:31;;;;;;;15.07;8.45;;;;;;;8.22;70.07;101558.56;5050509;28;20036;-75
2022/11/05 05:08:04;;;;;;;14.15;9.35;;;;;;;8.24;70.22;101573.84;5053906;28;20033;-75
2022/11/05 05:10:30;;;;;;;13.30;8.60;;;;;;;8.28;69.93;101563.19;5048588;28;20049;-75
2022/11/05 05:12:55;;;;;;;13.65;8.50;;;;;;;8.24;69.88;101570.22;5032990;28;20512;-74
2022/11/05 05:15:21;;;;;;;12.27;8.88;;;;;;;8.24;70.09;101564.69;5033903;28;20105;-74
2022/11/05 05:17:52;;;;;;;13.43;8.68;;;;;;;8.23;70.83;101569.38;5033548;28;20051;-75
2022/11/05 05:23:03;;;;;;;13.30;8.35;;;;;;;8.21;70.18;101567.91;5037138;28;20128;-74
2022/11/05 05:25:29;;;;;;;14.23;8.23;;;;;;;8.19;69.63;101575.59;5040692;28;20040;-75
2022/11/05 05:27:58;;;;;;;12.40;8.65;;;;;;;8.18;70.19;101577.50;5034901;28;20389;-75
2022/11/05 05:30:24;;;;;;;10.60;8.68;;;;;;;8.19;70.23;101584.72;5045794;28;20465;-72
2022/11/05 05:32:49;;;;;;;14.25;9.02;;;;;;;8.15;70.08;101580.69;5033644;28;20423;-72
2022/11/05 05:35:15;;;;;;;14.63;9.10;;;;;;;8.16;69.91;101584.31;5042072;28;20143;-73
2022/11/05 05:37:40;;;;;;;12.95;8.73;;;;;;;8.14;69.67;101586.47;5040639;28;20101;-74
2022/11/05 05:40:06;;;;;;;11.43;8.63;;;;;;;8.14;69.72;101580.94;5035533;28;20456;-74
2022/11/05 05:42:32;;;;;;;15.02;9.00;;;;;;;8.15;69.99;101593.69;5052448;28;20036;-74
2022/11/05 05:44:57;;;;;;;10.10;8.43;;;;;;;8.14;69.73;101589.22;5042572;28;20116;-74
2022/11/05 05:47:22;;;;;;;11.00;8.82;;;;;;;8.09;69.76;101592.63;5042117;28;20047;-74
2022/11/05 05:49:47;;;;;;;9.52;8.18;;;;;;;8.11;70.28;101588.56;5047545;28;20380;-74
2022/11/05 05:52:13;;;;;;;11.32;9.10;;;;;;;8.08;69.94;101583.47;5060060;28;20079;-74
2022/11/05 05:54:38;;;;;;;9.93;8.35;;;;;;;8.08;70.24;101586.25;5048432;28;20476;-74
2022/11/05 05:57:04;;;;;;;10.88;8.55;;;;;;;8.06;69.95;101584.78;5062190;28;20097;-74
2022/11/05 05:59:29;;;;;;;12.68;8.80;;;;;;;8.02;69.65;101592.66;5051877;28;20025;-74
2022/11/05 06:01:54;;;;;;;12.05;8.77;;;;;;;8.09;69.79;101587.94;5046046;28;20029;-74
2022/11/05 06:04:22;;;;;;;16.65;8.85;;;;;;;8.08;70.32;101594.53;5035228;28;20065;-78
2022/11/05 06:06:48;;;;;;;12.05;8.43;;;;;;;7.99;70.04;101583.97;5041302;28;20400;-79
2022/11/05 06:09:14;;;;;;;14.25;8.70;;;;;;;7.99;70.55;101581.19;5042765;28;20025;-73
2022/11/05 06:11:39;;;;;;;11.85;8.02;;;;;;;8.01;69.63;101585.41;5037483;28;20033;-73
2022/11/05 06:14:05;;;;;;;12.73;8.25;;;;;;;8.00;70.41;101596.72;5037802;28;20033;-72
2022/11/05 06:16:34;;;;;;;10.77;8.05;;;;;;;8.02;70.46;101591.81;5032663;28;20504;-71
2022/11/05 06:19:00;;;;;;;10.35;7.55;;;;;;;8.06;69.72;101588.41;5052312;28;20110;-71
2022/11/05 06:21:25;;;;;;;11.93;8.20;;;;;;;7.99;69.84;101595.00;5035425;28;20136;-72
2022/11/05 06:23:51;;;;;;;11.20;7.78;;;;;;;7.95;69.75;101602.91;5030943;28;20049;-70
2022/11/05 06:26:17;;;;;;;15.73;9.45;;;;;;;8.00;70.54;101600.31;5032229;28;20029;-71
2022/11/05 06:28:43;;;;;;;14.38;8.48;;;;;;;7.96;70.47;101600.97;5042712;28;20056;-70
2022/11/05 06:31:13;;;;;;;11.30;8.40;;;;;;;7.91;70.38;101601.63;5043339;28;20594;-69
2022/11/05 06:33:39;;;;;;;14.68;8.27;;;;;;;7.92;70.13;101597.78;5044391;28;20036;-69
2022/11/05 06:36:05;;;;;;;11.00;7.68;;;;;;;7.90;70.24;101610.13;5052271;28;20102;-70
2022/11/05 06:38:35;;;;;;;10.18;7.95;;;;;;;7.92;70.49;101605.25;5037498;28;20490;-70
2022/11/05 06:41:01;;;;;;;10.73;8.02;;;;;;;7.93;70.34;101605.00;5036440;28;20103;-70
2022/11/05 06:43:30;;;;;;;12.95;8.52;;;;;;;7.93;69.80;101606.94;5031861;28;20033;-69
2022/11/05 06:46:17;;;;;;;9.45;7.53;;;;;;;7.94;70.12;101609.50;5043532;28;20119;-70
2022/11/05 06:48:41;;;;;;;12.35;8.02;;;;;;;7.91;69.57;101603.56;5061825;28;20132;-67
2022/11/05 06:51:07;;;;;;;11.23;8.27;;;;;;;7.91;69.96;101603.56;5030676;28;20131;-68
2022/11/05 06:53:33;;;;;;;13.15;7.63;;;;;;;7.91;70.22;101603.56;5031736;28;20103;-71
2022/11/05 06:56:06;;;;;;;12.60;7.85;;;;;;;7.86;69.88;101609.72;5033907;28;20037;-71
2022/11/05 06:58:32;;;;;;;10.38;7.65;;;;;;;7.84;69.82;101611.84;5046262;28;20028;-71
2022/11/05 07:01:09;;;;;;;11.98;7.95;;;;;;;7.85;70.83;101614.38;5043967;28;20140;-71
2022/11/05 07:03:38;;;;;;;9.00;8.10;;;;;;;7.89;70.32;101617.56;5033068;28;20436;-71
2022/11/05 07:06:05;;;;;;;10.65;8.02;;;;;;;7.85;70.08;101616.31;5049121;28;20040;-71
2022/11/05 07:08:35;;;;;;;9.95;7.93;;;;;;;7.83;71.02;101629.50;5051610;28;20380;-71
2022/11/05 07:11:00;;;;;;;12.18;7.90;;;;;;;7.84;70.14;101631.19;5051308;28;20523;-71
2022/11/05 07:13:26;;;;;;;10.07;7.95;;;;;;;7.85;70.06;101632.88;5049765;28;20037;-72
2022/11/05 07:15:51;;;;;;;10.25;8.13;;;;;;;7.85;70.06;101627.34;5052624;28;20020;-72
2022/11/05 07:18:17;;;;;;;14.48;7.95;;;;;;;7.87;70.31;101631.63;5051405;28;20037;-72
2022/11/05 07:20:42;;;;;;;11.25;8.20;;;;;;;7.83;70.87;101627.59;5052302;28;20062;-72
2022/11/05 07:23:14;;;;;;;12.43;8.30;;;;;;;7.84;70.75;101632.03;5071311;28;20383;-70
2022/11/05 07:25:41;;;;;;;10.60;8.40;;;;;;;7.89;70.87;101636.91;5071320;28;20036;-70
2022/11/05 07:28:07;;;;;;;15.27;8.43;;;;;;;7.92;70.69;101635.66;5070492;28;20111;-70
2022/11/05 07:30:34;;;;;;;13.02;8.60;;;;;;;7.90;70.85;101640.53;5070951;28;20156;-71
2022/11/05 07:32:59;;;;;;;15.10;8.98;;;;;;;7.92;70.45;101643.94;5050810;28;20076;-72
2022/11/05 07:35:25;;;;;;;10.13;8.18;;;;;;;7.92;70.38;101643.94;5049079;28;20417;-71
2022/11/05 07:37:54;;;;;;;14.02;8.50;;;;;;;7.93;70.38;101638.19;5068851;28;20391;-71
2022/11/05 07:40:23;;;;;;;11.23;7.70;;;;;;;7.96;70.74;101650.72;5050313;28;20049;-71
2022/11/05 07:42:56;;;;;;;12.43;8.45;;;;;;;7.96;71.11;101653.50;5042175;28;20096;-71
2022/11/05 07:45:22;;;;;;;16.33;8.50;;;;;;;7.98;70.79;101646.69;5029354;28;20056;-71
2022/11/05 07:47:50;;;;;;;13.18;8.52;;;;;;;8.00;70.76;101654.75;5029650;28;20379;-71
2022/11/05 07:50:17;;;;;;;12.35;8.07;;;;;;;8.00;71.23;101654.75;5037725;28;20074;-72
2022/11/05 07:52:43;;;;;;;13.07;8.38;;;;;;;7.99;71.37;101661.38;5070828;28;20463;-72
2022/11/05 07:55:09;;;;;;;16.30;8.38;;;;;;;8.02;71.20;101660.94;5070098;28;20023;-71
2022/11/05 07:57:49;;;;;;;13.23;8.75;;;;;;;8.11;70.89;101665.16;5070827;28;20025;-71
2022/11/05 08:00:18;;;;;;;11.68;8.55;;;;;;;8.11;71.29;101660.47;5070915;28;20028;-71
2022/11/05 08:02:54;;;;;;;10.63;8.02;;;;;;;8.16;71.29;101654.28;5070118;28;20028;-72
2022/11/05 08:05:19;;;;;;;12.13;8.65;;;;;;;8.16;71.19;101656.19;5060919;28;20067;-70
2022/11/05 08:07:44;;;;;;;12.10;8.93;;;;;;;8.17;71.40;101657.91;5047076;28;20037;-71
2022/11/05 08:10:10;;;;;;;10.45;8.52;;;;;;;8.20;71.16;101658.31;5051253;28;20720;-71
2022/11/05 08:12:35;;;;;;;13.82;8.85;;;;;;;8.26;71.13;101651.06;5053423;28;20032;-71
2022/11/05 08:15:00;;;;;;;15.32;8.98;;;;;;;8.25;71.33;101658.53;5051013;28;20041;-70
2022/11/05 08:17:26;;;;;;;12.40;9.20;;;;;;;8.28;71.68;101654.47;5049224;28;20033;-71
2022/11/05 08:19:51;;;;;;;12.13;8.77;;;;;;;8.30;71.80;101658.72;5064472;28;20082;-70
2022/11/05 08:22:16;;;;;;;12.20;8.50;;;;;;;8.30;71.40;101663.41;5044780;28;20053;-71
2022/11/05 08:24:41;;;;;;;12.10;9.43;;;;;;;8.36;71.84;101659.75;5031044;28;20037;-70
2022/11/05 08:27:07;;;;;;;13.15;9.10;;;;;;;8.40;71.07;101647.19;5034861;28;20040;-71
2022/11/05 08:29:32;;;;;;;10.38;9.15;;;;;;;8.43;71.97;101651.47;5040365;28;20026;-70
2022/11/05 08:31:57;;;;;;;11.73;9.63;;;;;;;8.48;71.90;101649.72;5043784;28;20538;-71
2022/11/05 08:34:22;;;;;;;13.55;9.48;;;;;;;8.47;71.82;101653.56;5045931;28;20067;-71
2022/11/05 08:36:48;;;;;;;15.48;9.77;;;;;;;8.51;71.57;101657.59;5050325;28;20048;-70
2022/11/05 08:39:13;;;;;;;13.20;9.65;;;;;;;8.55;72.17;101652.47;5060815;28;20041;-71
2022/11/05 08:41:39;;;;;;;14.27;9.05;;;;;;;8.62;71.50;101657.97;5049117;28;20020;-64
2022/11/05 08:44:07;;;;;;;10.43;9.32;;;;;;;8.71;71.47;101660.25;5042210;28;20087;-70
2022/11/05 08:46:34;;;;;;;15.80;9.18;;;;;;;8.75;71.56;101661.50;5045966;28;20029;-71
2022/11/05 08:49:05;;;;;;;10.75;8.82;;;;;;;8.82;71.61;101662.31;5050330;28;20042;-73
2022/11/05 08:51:30;;;;;;;16.17;9.68;;;;;;;8.87;71.93;101658.03;5054951;28;20029;-71
2022/11/05 08:53:58;;;;;;;14.52;9.55;;;;;;;8.85;71.31;101666.59;5052570;28;20487;-73
2022/11/05 08:56:23;;;;;;;12.43;9.02;;;;;;;8.91;71.49;101657.38;5057841;28;20025;-74
2022/11/05 08:58:49;;;;;;;12.07;8.88;;;;;;;8.92;71.71;101658.22;5042635;28;20412;-74
2022/11/05 09:01:14;;;;;;;16.35;9.73;;;;;;;8.94;71.84;101656.94;5042634;28;20021;-77
2022/11/05 09:03:39;;;;;;;13.25;9.23;;;;;;;8.95;71.70;101657.78;5052698;28;20758;-74
2022/11/05 09:06:05;;;;;;;13.85;9.30;;;;;;;9.01;72.07;101654.97;5033563;28;20048;-72
2022/11/05 09:08:30;;;;;;;12.35;9.52;;;;;;;9.04;71.98;101651.75;5053793;28;20029;-71
2022/11/05 09:10:55;;;;;;;13.18;9.55;;;;;;;9.10;71.77;101659.16;5054506;28;20476;-69
2022/11/05 09:13:21;;;;;;;11.98;8.65;;;;;;;9.17;71.51;101664.66;5044086;28;20030;-72
2022/11/05 09:15:47;;;;;;;12.30;9.02;;;;;;;9.24;71.34;101661.84;5053938;28;20024;-71
2022/11/05 09:18:13;;;;;;;13.55;9.15;;;;;;;9.30;71.51;101660.94;5050476;28;20044;-72
2022/11/05 09:20:39;;;;;;;12.02;9.18;;;;;;;9.44;71.60;101656.16;5053819;28;20111;-72
2022/11/05 09:23:05;;;;;;;15.48;9.18;;;;;;;9.51;71.77;101651.38;5042998;28;20036;-72
2022/11/05 09:25:31;;;;;;;15.48;9.02;;;;;;;9.64;71.93;101658.75;5042054;28;20048;-72
2022/11/05 09:28:11;;;;;;;12.10;9.25;;;;;;;9.74;71.26;101650.75;5050826;28;20021;-71
2022/11/05 09:30:50;;;;;;;10.38;8.63;;;;;;;9.85;70.86;101658.31;5038526;28;20029;-72
2022/11/05 09:33:17;;;;;;;18.30;8.27;;;;;;;9.93;70.80;101646.91;5039658;28;20026;-72
2022/11/05 09:35:43;;;;;;;12.43;8.63;;;;;;;10.03;71.06;101658.34;5035973;28;20025;-71
2022/11/05 09:38:08;;;;;;;10.88;8.00;;;;;;;10.12;70.74;101663.59;5038192;28;20106;-71
2022/11/05 09:40:58;;;;;;;12.00;8.30;;;;;;;10.22;70.70;101666.69;5032607;28;20033;-72
2022/11/05 09:43:31;;;;;;;10.48;8.57;;;;;;;10.27;70.57;101662.16;5045951;28;20036;-72
2022/11/05 09:45:59;;;;;;;12.80;8.25;;;;;;;10.34;70.28;101666.78;5037955;28;20095;-73
2022/11/05 09:48:33;;;;;;;12.75;8.32;;;;;;;10.40;70.09;101675.03;5044250;28;20083;-71
2022/11/05 09:50:58;;;;;;;12.75;7.70;;;;;;;10.45;69.91;101666.88;5046477;28;20032;-72
2022/11/05 09:53:24;;;;;;;13.88;7.63;;;;;;;10.49;69.64;101679.19;5048211;28;20028;-64
2022/11/05 09:55:53;;;;;;;12.13;7.80;;;;;;;10.58;69.85;101674.16;5041929;28;20025;-73
2022/11/05 09:58:46;;;;;;;11.70;8.20;;;;;;;10.70;70.02;101682.56;5035082;28;20025;-73
2022/11/05 10:01:16;;;;;;;11.93;7.10;;;;;;;10.77;69.71;101677.78;5054021;28;20033;-73
2022/11/05 10:03:49;;;;;;;11.27;7.60;;;;;;;10.73;69.35;101680.16;5054510;28;20033;-73
2022/11/05 10:06:21;;;;;;;8.35;7.22;;;;;;;10.70;69.22;101686.19;5057109;28;20430;-73
2022/11/05 10:08:53;;;;;;;10.55;7.47;;;;;;;10.62;69.01;101686.50;5068849;28;20069;-72
2022/11/05 10:11:28;;;;;;;10.32;7.00;;;;;;;10.60;69.33;101696.97;5071152;28;20035;-73
2022/11/05 10:13:58;;;;;;;11.18;7.32;;;;;;;10.58;69.65;101693.59;5053445;28;20079;-73
2022/11/05 10:16:30;;;;;;;11.35;7.10;;;;;;;10.56;69.59;101695.75;5042096;28;20017;-71
2022/11/05 10:19:23;;;;;;;11.27;7.68;;;;;;;10.54;69.67;101704.31;5035796;28;20063;-70
2022/11/05 10:21:49;;;;;;;14.23;8.13;;;;;;;10.50;69.43;101703.09;5052156;28;20029;-71
2022/11/05 10:24:17;;;;;;;12.25;8.02;;;;;;;10.51;69.91;101709.47;5052272;28;20055;-71
2022/11/05 10:26:49;;;;;;;12.07;7.32;;;;;;;10.49;69.55;101706.94;5052424;28;20079;-72
2022/11/05 10:29:28;;;;;;;13.90;7.97;;;;;;;10.51;69.99;101706.72;5050151;28;20075;-72
2022/11/05 10:31:55;;;;;;;12.30;7.85;;;;;;;10.46;69.87;101717.66;5057753;28;20098;-73
2022/11/05 10:34:25;;;;;;;13.52;7.93;;;;;;;10.47;69.62;101722.97;5067017;28;20051;-73
2022/11/05 10:36:53;;;;;;;14.40;10.00;;;;;;;10.47;69.85;101719.34;5041946;28;20474;-68
2022/11/05 10:39:20;;;;;;;13.23;9.13;;;;;;;10.43;69.35;101718.97;5035611;28;20071;-71
2022/11/05 10:42:10;;;;;;;11.77;8.75;;;;;;;10.39;69.70;101722.44;5028992;28;20036;-72
2022/11/05 10:45:00;;;;;;;11.70;7.78;;;;;;;10.42;69.45;101710.88;5038083;28;20530;-70
2022/11/05 10:47:37;;;;;;;13.70;8.18;;;;;;;10.34;69.64;101700.94;5056858;28;20036;-73
2022/11/05 10:50:10;;;;;;;13.20;7.75;;;;;;;10.35;69.68;101705.41;5033228;28;20045;-70
2022/11/05 10:52:47;;;;;;;14.63;8.32;;;;;;;10.31;70.06;101713.34;5028343;28;20695;-73
2022/11/05 10:55:19;;;;;;;14.45;8.77;;;;;;;10.34;70.17;101706.50;5039146;28;20087;-72
2022/11/05 10:57:46;;;;;;;;;;;;;;;10.41;69.86;101704.47;5027841;28;20025;-71
2022/11/05 11:00:14;;;;;;;12.60;8.48;;;;;;;10.38;70.11;101701.31;5030997;28;19928;-70
2022/11/05 11:02:50;;;;;;;15.38;8.60;;;;;;;10.43;70.26;101704.25;5043358;28;20060;-71
2022/11/05 11:05:22;;;;;;;20.02;8.73;;;;;;;10.43;70.46;101707.03;5043387;28;20033;-73
2022/11/05 11:08:16;;;;;;;13.73;8.82;;;;;;;10.43;70.13;101712.56;5038121;28;20033;-79
2022/11/05 11:10:49;;;;;;;13.43;8.68;;;;;;;10.43;70.24;101710.63;5031876;28;20029;-72
2022/11/05 11:13:20;;;;;;;12.60;8.32;;;;;;;10.45;70.26;101704.84;5035529;28;20100;-75
2022/11/05 11:15:45;;;;;;;14.38;9.13;;;;;;;10.44;70.21;101703.16;5056123;28;20021;-74
2022/11/05 11:18:26;;;;;;;13.27;8.85;;;;;;;10.47;69.98;101705.47;5044205;28;20039;-73
2022/11/05 11:20:52;;;;;;;11.70;8.48;;;;;;;10.48;70.22;101702.47;5040026;28;20059;-78
2022/11/05 11:23:17;;;;;;;14.90;8.95;;;;;;;10.54;70.37;101703.47;5050846;28;20555;-76
2022/11/05 11:25:59;;;;;;;15.15;9.02;;;;;;;10.55;69.86;101689.34;5035280;28;20039;-73
2022/11/05 11:28:31;;;;;;;15.23;9.55;;;;;;;10.53;69.73;101685.97;5038089;28;20028;-73
2022/11/05 11:31:20;;;;;;;12.45;7.95;;;;;;;10.64;69.85;101689.03;5044066;28;20032;-70
2022/11/05 11:33:50;;;;;;;18.40;9.23;;;;;;;10.77;70.03;101686.09;5034392;28;20048;-75
2022/11/05 11:36:18;;;;;;;13.45;8.65;;;;;;;10.89;69.87;101681.44;5041438;28;20173;-73
2022/11/05 11:38:47;;;;;;;15.27;8.70;;;;;;;11.00;69.25;101694.53;5041894;28;20070;-70
2022/11/05 11:41:28;;;;;;;13.80;8.18;;;;;;;11.12;69.16;101677.03;5044292;28;20036;-73
2022/11/05 11:44:03;;;;;;;14.63;8.27;;;;;;;11.20;68.26;101685.03;5030883;28;20033;-72
2022/11/05 11:46:32;;;;;;;13.82;7.97;;;;;;;11.30;68.06;101685.31;5047684;28;20040;-73
2022/11/05 11:48:59;;;;;;;14.85;8.02;;;;;;;11.36;67.39;101681.59;5044511;28;20472;-73
2022/11/05 11:51:24;;;;;;;15.23;7.18;;;;;;;11.44;67.56;101683.19;5041179;28;20025;-76
2022/11/05 11:53:55;;;;;;;12.40;8.10;;;;;;;11.46;66.49;101681.84;5045291;28;20032;-74
2022/11/05 11:56:21;;;;;;;12.20;7.05;;;;;;;11.51;66.26;101683.91;5044396;28;20041;-70
2022/11/05 11:58:54;;;;;;;12.57;6.28;;;;;;;11.54;65.95;101681.50;5029604;28;20022;-72
2022/11/05 12:01:23;;;;;;;11.85;6.20;;;;;;;11.57;65.64;101679.34;5045441;28;20041;-75
2022/11/05 12:03:56;;;;;;;9.15;6.35;;;;;;;11.54;65.42;101680.66;5043547;28;20036;-74
2022/11/05 12:06:34;;;;;;;11.20;6.90;;;;;;;11.55;66.21;101668.44;5042727;28;20395;-75
2022/11/05 12:09:12;;;;;;;12.38;6.95;;;;;;;11.61;65.95;101666.66;5043340;28;20029;-75
2022/11/05 12:11:48;;;;;;;9.57;6.32;;;;;;;11.63;65.76;101668.09;5051042;28;20116;-76
2022/11/05 12:14:49;;;;;;;10.38;6.18;;;;;;;11.69;66.49;101666.28;5047862;28;20029;-76
2022/11/05 12:17:21;;;;;;;8.95;6.43;;;;;;;11.67;65.76;101671.22;5038018;28;20033;-74
2022/11/05 12:20:23;;;;;;;10.00;6.70;;;;;;;11.66;66.49;101673.16;5045167;28;20040;-77
2022/11/05 12:23:22;;;;;;;10.48;5.95;;;;;;;11.67;66.35;101679.56;5048995;28;20041;-74
2022/11/05 12:26:11;;;;;;;11.48;6.47;;;;;;;11.64;66.10;101669.78;5038806;28;20048;-77